createdAt,value
2019-05-26T00:02:06.523Z,17.60
2019-05-26T00:04:35.274Z,17.50
2019-05-26T00:07:03.934Z,17.50
2019-05-26T00:09:32.824Z,17.50
2019-05-26T00:12:01.677Z,17.40
2019-05-26T00:14:31.564Z,17.50
2019-05-26T00:17:00.100Z,17.50
2019-05-26T00:21:56.502Z,17.50
2019-05-26T00:24:25.118Z,17.50
2019-05-26T00:26:52.780Z,17.40
2019-05-26T00:29:21.103Z,17.40
2019-05-26T00:31:51.296Z,17.40
2019-05-26T00:34:19.830Z,17.20
2019-05-26T00:36:48.644Z,17.30
2019-05-26T00:39:17.439Z,17.30
2019-05-26T00:41:46.122Z,17.40
2019-05-26T00:44:14.056Z,17.30
2019-05-26T00:46:42.745Z,17.30
2019-05-26T00:49:10.943Z,17.20
2019-05-26T00:51:40.445Z,17.00
2019-05-26T00:56:36.676Z,17.10
2019-05-26T00:59:07.439Z,16.80
2019-05-26T01:01:36.309Z,17.00
2019-05-26T01:04:04.458Z,17.00
2019-05-26T01:06:36.479Z,17.00
2019-05-26T01:09:07.628Z,16.80
2019-05-26T01:11:35.675Z,16.80
2019-05-26T01:14:04.248Z,16.70
2019-05-26T01:16:33.687Z,17.00
2019-05-26T01:19:02.148Z,16.90
2019-05-26T01:21:30.880Z,16.70
2019-05-26T01:23:58.118Z,16.30
2019-05-26T01:26:26.131Z,16.50
2019-05-26T01:28:54.227Z,16.60
2019-05-26T01:31:22.174Z,16.60
2019-05-26T01:33:50.451Z,16.60
2019-05-26T01:38:48.286Z,16.60
2019-05-26T01:41:15.962Z,16.50
2019-05-26T01:43:45.405Z,16.60
2019-05-26T01:46:14.322Z,16.30
2019-05-26T01:48:42.767Z,16.70
2019-05-26T01:51:12.013Z,16.40
2019-05-26T01:53:42.174Z,16.70
2019-05-26T01:56:12.329Z,16.30
2019-05-26T02:03:38.093Z,16.50
2019-05-26T02:06:06.683Z,15.70
2019-05-26T02:08:39.182Z,16.00
2019-05-26T02:11:03.928Z,16.00
2019-05-26T02:13:32.823Z,15.90
2019-05-26T02:16:00.613Z,15.90
2019-05-26T02:18:28.681Z,15.70
2019-05-26T02:20:57.251Z,15.30
2019-05-26T02:23:26.203Z,16.20
2019-05-26T02:25:54.815Z,15.90
2019-05-26T02:28:25.636Z,16.10
2019-05-26T02:30:53.834Z,15.80
2019-05-26T02:33:22.732Z,15.90
2019-05-26T02:35:54.126Z,15.80
2019-05-26T02:38:26.124Z,15.80
2019-05-26T02:40:52.045Z,15.70
2019-05-26T02:43:20.440Z,15.90
2019-05-26T02:45:48.257Z,15.60
2019-05-26T02:48:17.875Z,15.40
2019-05-26T02:50:46.191Z,15.50
2019-05-26T02:53:16.927Z,15.60
2019-05-26T02:55:45.511Z,15.50
2019-05-26T02:58:17.071Z,15.70
2019-05-26T03:00:46.493Z,15.60
2019-05-26T03:03:15.411Z,15.70
2019-05-26T03:05:44.659Z,15.50
2019-05-26T03:08:13.655Z,15.50
2019-05-26T03:10:42.018Z,15.50
2019-05-26T03:15:43.121Z,15.50
2019-05-26T03:18:11.704Z,15.20
2019-05-26T03:23:14.479Z,15.30
2019-05-26T03:25:43.687Z,15.30
2019-05-26T03:28:12.875Z,15.30
2019-05-26T03:30:41.160Z,15.00
2019-05-26T03:35:36.965Z,15.10
2019-05-26T03:38:05.613Z,15.30
2019-05-26T03:40:33.786Z,15.10
2019-05-26T03:43:01.938Z,15.30
2019-05-26T03:46:14.036Z,15.40
2019-05-26T03:48:42.798Z,15.30
2019-05-26T03:51:11.124Z,14.80
2019-05-26T03:53:39.912Z,15.20
2019-05-26T03:56:09.642Z,15.20
2019-05-26T03:58:41.260Z,15.20
2019-05-26T04:03:38.725Z,15.20
2019-05-26T04:06:09.653Z,15.20
2019-05-26T04:08:38.499Z,15.60
2019-05-26T04:11:07.510Z,15.10
2019-05-26T04:13:36.876Z,15.10
2019-05-26T04:16:04.921Z,15.20
2019-05-26T04:23:27.989Z,15.40
2019-05-26T04:25:56.902Z,15.50
2019-05-26T04:30:54.550Z,15.60
2019-05-26T04:33:22.247Z,16.00
2019-05-26T04:38:17.431Z,15.50
2019-05-26T04:40:45.842Z,16.00
2019-05-26T04:45:44.076Z,16.00
2019-05-26T04:48:13.658Z,16.40
2019-05-26T04:50:42.563Z,16.20
2019-05-26T04:53:10.796Z,16.20
2019-05-26T04:58:07.019Z,16.20
2019-05-26T05:00:34.349Z,16.40
2019-05-26T05:03:02.798Z,16.60
2019-05-26T05:10:41.371Z,16.50
2019-05-26T05:12:56.250Z,17.00
2019-05-26T05:15:25.110Z,17.20
2019-05-26T05:17:53.618Z,17.30
2019-05-26T05:20:21.263Z,17.40
2019-05-26T05:22:49.246Z,17.40
2019-05-26T05:25:18.324Z,17.90
2019-05-26T05:27:46.667Z,17.50
2019-05-26T05:30:15.243Z,17.30
2019-05-26T05:32:44.266Z,17.50
2019-05-26T05:35:13.525Z,17.60
2019-05-26T05:37:41.577Z,17.50
2019-05-26T05:42:38.719Z,17.70
2019-05-26T05:45:08.162Z,17.80
2019-05-26T05:47:36.043Z,18.00
2019-05-26T05:50:05.412Z,18.00
2019-05-26T05:52:33.460Z,18.50
2019-05-26T05:55:02.233Z,18.20
2019-05-26T05:57:30.909Z,18.30
2019-05-26T05:59:59.336Z,18.80
2019-05-26T06:02:27.726Z,18.70
2019-05-26T06:04:56.189Z,18.80
2019-05-26T06:07:24.661Z,19.00
2019-05-26T06:09:52.361Z,18.80
2019-05-26T06:14:48.518Z,19.30
2019-05-26T06:17:17.328Z,19.40
2019-05-26T06:19:46.161Z,19.60
2019-05-26T06:22:15.507Z,19.70
2019-05-26T06:24:43.929Z,19.90
2019-05-26T06:27:12.412Z,20.10
2019-05-26T06:29:56.002Z,20.40
2019-05-26T06:34:40.355Z,20.70
2019-05-26T06:37:11.552Z,20.90
2019-05-26T06:39:39.391Z,20.90
2019-05-26T06:42:06.987Z,21.20
2019-05-26T06:44:52.191Z,20.80
2019-05-26T06:47:05.499Z,21.20
2019-05-26T06:49:33.168Z,21.60
2019-05-26T06:52:01.221Z,21.80
2019-05-26T06:54:29.299Z,22.30
2019-05-26T06:57:04.563Z,22.20
2019-05-26T06:59:32.745Z,22.20
2019-05-26T07:02:03.094Z,22.30
2019-05-26T07:04:31.222Z,22.80
2019-05-26T07:12:00.160Z,23.50
2019-05-26T07:14:26.519Z,23.70
2019-05-26T07:16:54.953Z,23.60
2019-05-26T07:19:24.107Z,23.80
2019-05-26T07:21:52.658Z,23.90
2019-05-26T07:24:22.135Z,23.90
2019-05-26T07:26:50.811Z,23.90
2019-05-26T07:29:20.159Z,23.70
2019-05-26T07:31:48.845Z,23.80
2019-05-26T07:34:17.599Z,23.90
2019-05-26T07:36:45.718Z,24.60
2019-05-26T07:39:13.859Z,25.00
2019-05-26T07:41:41.943Z,25.70
2019-05-26T07:44:10.613Z,26.00
2019-05-26T07:46:39.211Z,25.80
2019-05-26T07:49:08.203Z,25.80
2019-05-26T07:51:36.578Z,26.20
2019-05-26T07:54:05.070Z,26.80
2019-05-26T07:56:33.948Z,27.20
2019-05-26T07:59:02.328Z,26.90
2019-05-26T08:01:36.200Z,27.70
2019-05-26T08:04:02.888Z,28.20
2019-05-26T08:06:31.449Z,28.70
2019-05-26T08:11:27.675Z,28.40
2019-05-26T08:13:58.992Z,28.50
2019-05-26T08:16:28.044Z,26.50
2019-05-26T08:18:56.647Z,29.40
2019-05-26T08:26:20.775Z,29.60
2019-05-26T08:31:18.417Z,29.60
2019-05-26T08:33:46.504Z,29.70
2019-05-26T08:36:15.749Z,29.90
2019-05-26T08:41:13.086Z,29.90
2019-05-26T08:43:42.410Z,30.00
2019-05-26T08:46:11.151Z,29.60
2019-05-26T08:48:39.874Z,29.70
2019-05-26T08:51:08.345Z,29.80
2019-05-26T08:53:36.420Z,30.00
2019-05-26T08:56:04.623Z,30.70
2019-05-26T08:58:33.052Z,29.90
2019-05-26T09:01:00.733Z,28.80
2019-05-26T09:03:29.323Z,27.20
2019-05-26T09:05:57.808Z,25.90
2019-05-26T09:08:26.231Z,25.50
2019-05-26T09:10:56.254Z,26.10
2019-05-26T09:18:21.202Z,26.60
2019-05-26T09:20:48.673Z,25.90
2019-05-26T09:23:16.511Z,25.40
2019-05-26T09:25:46.680Z,25.30
2019-05-26T09:28:15.263Z,25.20
2019-05-26T09:30:43.760Z,25.60
2019-05-26T09:33:12.364Z,25.60
2019-05-26T09:35:40.412Z,25.80
2019-05-26T09:38:10.109Z,25.80
2019-05-26T09:40:38.368Z,25.70
2019-05-26T09:45:39.172Z,25.70
2019-05-26T09:48:07.424Z,25.70
2019-05-26T09:50:35.993Z,25.80
2019-05-26T09:53:04.992Z,25.40
2019-05-26T09:58:03.109Z,25.90
2019-05-26T10:03:00.036Z,26.00
2019-05-26T10:05:28.941Z,25.80
2019-05-26T10:10:25.522Z,25.80
2019-05-26T10:15:21.959Z,25.80
2019-05-26T10:20:20.748Z,26.60
2019-05-26T10:22:49.219Z,26.80
2019-05-26T10:25:17.729Z,27.10
2019-05-26T10:27:46.465Z,27.20
2019-05-26T10:30:14.591Z,27.20
2019-05-26T10:32:42.540Z,27.10
2019-05-26T10:35:11.351Z,27.10
2019-05-26T10:37:40.317Z,27.00
2019-05-26T10:40:09.341Z,26.90
2019-05-26T10:42:37.602Z,27.00
2019-05-26T10:45:07.321Z,27.10
2019-05-26T10:47:35.689Z,26.70
2019-05-26T10:50:03.986Z,26.80
2019-05-26T10:55:00.459Z,26.60
2019-05-26T10:59:55.849Z,26.50
2019-05-26T11:02:25.177Z,26.60
2019-05-26T11:07:20.592Z,27.20
2019-05-26T11:09:49.076Z,27.10
2019-05-26T11:12:19.835Z,27.10
2019-05-26T11:14:51.363Z,26.80
2019-05-26T11:17:20.911Z,26.50
2019-05-26T11:19:53.660Z,26.40
2019-05-26T11:22:21.829Z,26.70
2019-05-26T11:24:59.764Z,26.50
2019-05-26T11:27:28.512Z,26.20
2019-05-26T11:30:13.746Z,26.10
2019-05-26T11:32:41.588Z,26.40
2019-05-26T11:35:09.712Z,26.40
2019-05-26T11:37:38.261Z,26.20
2019-05-26T11:40:06.676Z,26.10
2019-05-26T11:42:33.994Z,26.00
2019-05-26T11:45:04.462Z,26.40
2019-05-26T11:47:33.978Z,26.00
2019-05-26T11:52:30.719Z,26.30
2019-05-26T11:54:59.514Z,26.50
2019-05-26T11:57:30.174Z,26.00
2019-05-26T11:59:58.902Z,26.10
2019-05-26T12:02:27.427Z,26.50
2019-05-26T12:04:56.411Z,25.90
2019-05-26T12:07:24.780Z,26.10
2019-05-26T12:09:52.479Z,26.50
2019-05-26T12:12:21.438Z,26.30
2019-05-26T12:14:50.399Z,26.60
2019-05-26T12:17:18.524Z,26.10
2019-05-26T12:19:46.211Z,26.20
2019-05-26T12:22:14.555Z,26.30
2019-05-26T12:24:42.655Z,26.50
2019-05-26T12:29:41.640Z,26.70
2019-05-26T12:34:37.912Z,26.40
2019-05-26T12:39:34.558Z,25.90
2019-05-26T12:42:02.266Z,26.10
2019-05-26T12:44:30.792Z,26.30
2019-05-26T12:47:00.229Z,26.30
2019-05-26T12:49:28.861Z,26.50
2019-05-26T12:51:58.810Z,26.50
2019-05-26T12:54:27.160Z,26.30
2019-05-26T12:56:56.464Z,26.60
2019-05-26T12:59:25.568Z,26.30
2019-05-26T13:01:55.093Z,26.60
2019-05-26T13:04:24.971Z,26.40
2019-05-26T13:06:53.791Z,26.30
2019-05-26T13:14:19.244Z,26.70
2019-05-26T13:16:47.622Z,26.90
2019-05-26T13:19:16.621Z,26.80
2019-05-26T13:21:44.397Z,26.80
2019-05-26T13:26:41.129Z,27.00
2019-05-26T13:29:08.874Z,27.20
2019-05-26T13:34:04.651Z,26.70
2019-05-26T13:36:33.172Z,26.40
2019-05-26T13:41:29.538Z,26.80
2019-05-26T13:43:58.100Z,26.50
2019-05-26T13:48:57.479Z,26.20
2019-05-26T13:51:25.452Z,25.90
2019-05-26T13:53:53.902Z,25.40
2019-05-26T13:56:22.598Z,25.60
2019-05-26T13:58:50.794Z,25.70
2019-05-26T14:01:19.081Z,25.70
2019-05-26T14:03:46.886Z,25.20
2019-05-26T14:06:16.367Z,25.20
2019-05-26T14:08:45.228Z,25.60
2019-05-26T14:13:42.491Z,25.40
2019-05-26T14:16:11.892Z,25.30
2019-05-26T14:18:42.622Z,25.40
2019-05-26T14:21:11.825Z,25.20
2019-05-26T14:23:40.309Z,25.40
2019-05-26T14:26:09.383Z,25.20
2019-05-26T14:28:38.782Z,25.10
2019-05-26T14:33:35.695Z,24.90
2019-05-26T14:36:04.594Z,25.10
2019-05-26T14:38:42.700Z,25.00
2019-05-26T14:41:02.361Z,24.90
2019-05-26T14:43:31.311Z,24.80
2019-05-26T14:46:00.249Z,24.60
2019-05-26T14:48:28.638Z,24.20
2019-05-26T14:50:56.780Z,24.60
2019-05-26T14:53:25.986Z,24.50
2019-05-26T14:55:54.562Z,24.50
2019-05-26T15:00:49.936Z,24.70
2019-05-26T15:03:18.076Z,24.20
2019-05-26T15:05:46.857Z,23.80
2019-05-26T15:08:15.222Z,23.90
2019-05-26T15:10:42.909Z,24.50
2019-05-26T15:13:12.316Z,23.90
2019-05-26T15:15:43.653Z,23.90
2019-05-26T15:18:12.188Z,23.90
2019-05-26T15:23:08.081Z,23.70
2019-05-26T15:25:35.448Z,24.20
2019-05-26T15:28:03.716Z,23.70
2019-05-26T15:30:31.789Z,23.30
2019-05-26T15:35:28.391Z,23.70
2019-05-26T15:37:57.236Z,23.70
2019-05-26T15:42:53.688Z,23.80
2019-05-26T15:45:22.332Z,23.80
2019-05-26T15:50:19.140Z,23.60
2019-05-26T15:55:17.288Z,23.70
2019-05-26T15:57:48.391Z,23.70
2019-05-26T16:00:16.712Z,24.30
2019-05-26T16:02:49.959Z,23.80
2019-05-26T16:05:19.185Z,23.70
2019-05-26T16:07:49.689Z,23.90
2019-05-26T16:10:18.923Z,23.70
2019-05-26T16:12:47.466Z,23.60
2019-05-26T16:15:15.881Z,23.80
2019-05-26T16:17:45.382Z,22.90
2019-05-26T16:22:43.974Z,23.40
2019-05-26T16:27:40.909Z,23.00
2019-05-26T16:30:09.859Z,23.40
2019-05-26T16:32:38.893Z,23.30
2019-05-26T16:35:19.733Z,23.60
2019-05-26T16:37:48.187Z,23.30
2019-05-26T16:40:17.619Z,23.10
2019-05-26T16:42:45.604Z,23.30
2019-05-26T16:47:50.141Z,23.40
2019-05-26T16:50:20.257Z,22.80
2019-05-26T16:52:48.495Z,23.10
2019-05-26T16:55:16.808Z,23.10
2019-05-26T16:57:44.229Z,23.10
2019-05-26T17:00:13.842Z,23.00
2019-05-26T17:02:42.573Z,22.70
2019-05-26T17:07:40.071Z,22.80
2019-05-26T17:12:43.496Z,23.10
2019-05-26T17:15:11.961Z,22.90
2019-05-26T17:25:05.471Z,22.80
2019-05-26T17:27:35.412Z,23.00
2019-05-26T17:30:04.056Z,23.10
2019-05-26T17:37:29.428Z,23.00
2019-05-26T17:39:58.194Z,23.00
2019-05-26T17:42:27.953Z,22.50
2019-05-26T17:44:56.870Z,23.30
2019-05-26T17:47:30.366Z,23.10
2019-05-26T17:49:58.881Z,22.90
2019-05-26T17:52:36.095Z,23.40
2019-05-26T18:00:05.310Z,23.10
2019-05-26T18:02:35.042Z,23.20
2019-05-26T18:07:32.905Z,23.20
2019-05-26T18:10:01.194Z,23.10
2019-05-26T18:12:34.313Z,23.00
2019-05-26T18:15:02.758Z,23.20
2019-05-26T18:17:46.890Z,22.90
2019-05-26T18:20:09.356Z,22.80
2019-05-26T18:22:38.619Z,22.70
2019-05-26T18:27:38.372Z,22.60
2019-05-26T18:30:09.511Z,22.80
2019-05-26T18:32:37.673Z,22.90
2019-05-26T18:35:05.713Z,22.30
2019-05-26T18:37:33.839Z,22.60
2019-05-26T18:40:02.620Z,22.50
2019-05-26T18:42:30.522Z,22.30
2019-05-26T18:47:31.852Z,22.40
2019-05-26T18:50:01.173Z,22.30
2019-05-26T18:52:29.833Z,22.30
2019-05-26T18:55:02.496Z,22.40
2019-05-26T18:57:30.537Z,22.10
2019-05-26T18:59:58.760Z,22.10
2019-05-26T19:04:58.561Z,22.00
2019-05-26T19:07:30.711Z,21.90
2019-05-26T19:09:59.352Z,22.00
2019-05-26T19:15:19.366Z,21.80
2019-05-26T19:17:48.860Z,21.70
2019-05-26T19:20:17.557Z,21.60
2019-05-26T19:25:15.427Z,21.60
2019-05-26T19:30:14.600Z,21.60
2019-05-26T19:32:43.688Z,21.50
2019-05-26T19:40:13.749Z,21.50
2019-05-26T19:45:10.711Z,21.40
2019-05-26T19:47:40.818Z,21.40
2019-05-26T19:50:10.275Z,21.40
2019-05-26T19:52:38.457Z,21.20
2019-05-26T19:55:09.199Z,21.40
2019-05-26T20:00:16.490Z,21.40
2019-05-26T20:05:13.807Z,21.60
2019-05-26T20:07:42.787Z,21.50
2019-05-26T20:10:11.988Z,21.20
2019-05-26T20:12:40.272Z,21.20
2019-05-26T20:15:11.204Z,21.00
2019-05-26T20:17:40.492Z,20.70
2019-05-26T20:22:39.010Z,21.20
2019-05-26T20:25:06.869Z,21.50
2019-05-26T20:27:35.040Z,21.10
2019-05-26T20:30:04.887Z,21.40
2019-05-26T20:37:32.995Z,20.80
2019-05-26T20:42:30.773Z,21.30
2019-05-26T20:47:27.477Z,21.30
2019-05-26T20:52:23.844Z,20.90
2019-05-26T20:54:52.316Z,20.80
2019-05-26T20:57:21.128Z,20.70
2019-05-26T20:59:49.402Z,20.70
2019-05-26T21:02:18.492Z,21.10
2019-05-26T21:04:47.398Z,20.50
2019-05-26T21:09:43.700Z,20.80
2019-05-26T21:12:11.510Z,20.50
2019-05-26T21:14:39.682Z,20.50
2019-05-26T21:22:05.193Z,20.70
2019-05-26T21:27:01.579Z,20.30
2019-05-26T21:29:30.555Z,20.30
2019-05-26T21:31:59.030Z,20.30
2019-05-26T21:36:55.970Z,20.20
2019-05-26T21:39:23.759Z,20.00
2019-05-26T21:41:53.548Z,20.20
2019-05-26T21:44:22.775Z,20.00
2019-05-26T21:46:53.074Z,20.10
2019-05-26T21:49:21.693Z,20.10
2019-05-26T21:51:51.390Z,20.50
2019-05-26T21:54:19.144Z,20.10
2019-05-26T21:56:47.231Z,20.30
2019-05-26T21:59:16.012Z,20.40
2019-05-26T22:01:46.297Z,20.50
2019-05-26T22:04:15.699Z,19.80
2019-05-26T22:06:43.636Z,20.20
2019-05-26T22:09:12.012Z,20.10
2019-05-26T22:11:41.307Z,19.90
2019-05-26T22:16:39.655Z,19.60
2019-05-26T22:19:11.164Z,20.00
2019-05-26T22:21:39.240Z,20.10
2019-05-26T22:26:37.754Z,20.60
2019-05-26T22:34:02.549Z,20.20
2019-05-26T22:38:58.689Z,20.00
2019-05-26T22:41:28.828Z,19.60
2019-05-26T22:46:26.944Z,20.00
2019-05-26T22:51:24.117Z,20.00
2019-05-26T22:53:52.265Z,20.20
2019-05-26T22:56:21.275Z,20.10
2019-05-26T22:58:49.645Z,19.80
2019-05-26T23:01:17.628Z,19.60
2019-05-26T23:03:45.729Z,19.80
2019-05-26T23:06:13.853Z,19.60
2019-05-26T23:08:42.250Z,19.70
2019-05-26T23:11:11.109Z,20.10
2019-05-26T23:13:39.178Z,19.50
2019-05-26T23:16:08.961Z,20.00
2019-05-26T23:18:40.051Z,20.00
2019-05-26T23:23:37.243Z,19.90
2019-05-26T23:26:08.631Z,20.10
2019-05-26T23:28:37.431Z,19.70
2019-05-26T23:33:34.768Z,19.50
2019-05-26T23:36:03.049Z,19.60
2019-05-26T23:38:31.180Z,19.60
2019-05-26T23:40:59.359Z,19.60
2019-05-26T23:43:28.432Z,19.40
2019-05-26T23:45:57.328Z,19.50
2019-05-26T23:48:25.925Z,19.40
2019-05-26T23:50:54.668Z,19.30
2019-05-26T23:53:24.392Z,19.30
2019-05-26T23:55:52.784Z,19.30
